Time,TemperatureF,DewpointF,PressureIn,WindDirection,WindDirectionDegrees,WindSpeedMPH,WindSpeedGustMPH,Humidity,HourlyPrecipIn,Conditions,Clouds,dailyrainin,SoftwareType,DateUTC
2013-02-16 00:05:00,7.4,4.3,30.31,NNW,336,0.0,2.0,87,0.00,,,0.00,Wunderground v.1.15,2013-02-16 06:05:00,
2013-02-16 00:15:00,7.6,4.5,30.30,WNW,284,0.0,1.0,87,0.00,,,0.00,Wunderground v.1.15,2013-02-16 06:15:00,
2013-02-16 00:25:00,7.9,4.8,30.30,NNW,329,1.0,1.0,87,0.00,,,0.00,Wunderground v.1.15,2013-02-16 06:25:00,
2013-02-16 00:35:00,8.1,5.0,30.30,NNW,333,3.0,4.0,87,0.00,,,0.00,Wunderground v.1.15,2013-02-16 06:35:00,
2013-02-16 00:40:00,8.1,5.0,30.30,NW,309,2.0,2.0,87,0.00,,,0.00,Wunderground v.1.15,2013-02-16 06:40:00,
2013-02-16 00:45:00,8.3,5.2,30.29,NW,313,1.0,2.0,87,0.00,,,0.00,Wunderground v.1.15,2013-02-16 06:45:00,
2013-02-16 00:50:00,8.3,5.2,30.29,NNW,328,1.0,1.0,87,0.00,,,0.00,Wunderground v.1.15,2013-02-16 06:50:00,
2013-02-16 00:55:00,8.4,5.3,30.29,NNW,333,2.0,4.0,87,0.00,,,0.00,Wunderground v.1.15,2013-02-16 06:55:00,
2013-02-16 01:00:00,8.4,5.3,30.29,NW,326,1.0,1.0,87,0.00,,,0.00,Wunderground v.1.15,2013-02-16 07:00:00,
2013-02-16 01:10:00,8.4,5.3,30.29,NW,322,1.0,1.0,87,0.00,,,0.00,Wunderground v.1.15,2013-02-16 07:10:00,
2013-02-16 01:20:00,8.4,5.3,30.29,NW,318,0.0,0.0,87,0.00,,,0.00,Wunderground v.1.15,2013-02-16 07:20:00,
2013-02-16 01:25:00,8.6,5.5,30.29,NNW,330,1.0,1.0,87,0.00,,,0.00,Wunderground v.1.15,2013-02-16 07:25:00,
2013-02-16 01:30:00,8.6,5.5,30.29,NNW,342,1.0,1.0,87,0.00,,,0.00,Wunderground v.1.15,2013-02-16 07:30:00,
2013-02-16 01:40:00,8.6,5.5,30.29,NNW,343,1.0,4.0,87,0.00,,,0.00,Wunderground v.1.15,2013-02-16 07:40:00,
2013-02-16 01:45:00,8.6,5.5,30.28,North,354,1.0,4.0,87,0.00,,,0.00,Wunderground v.1.15,2013-02-16 07:45:00,
2013-02-16 01:50:00,8.4,5.3,30.28,North,354,1.0,1.0,87,0.00,,,0.00,Wunderground v.1.15,2013-02-16 07:50:00,
2013-02-16 02:00:00,8.1,4.8,30.28,North,354,0.0,0.0,86,0.00,,,0.00,Wunderground v.1.15,2013-02-16 08:00:00,
2013-02-16 02:10:00,7.9,4.6,30.28,North,354,0.0,0.0,86,0.00,,,0.00,Wunderground v.1.15,2013-02-16 08:10:00,
2013-02-16 02:20:00,7.9,4.6,30.28,North,354,0.0,0.0,86,0.00,,,0.00,Wunderground v.1.15,2013-02-16 08:20:00,
2013-02-16 02:25:00,8.1,5.0,30.28,North,356,0.0,1.0,87,0.00,,,0.00,Wunderground v.1.15,2013-02-16 08:25:00,
2013-02-16 02:30:00,8.4,5.3,30.27,North,352,1.0,1.0,87,0.00,,,0.00,Wunderground v.1.15,2013-02-16 08:30:00,
2013-02-16 02:40:00,8.4,5.1,30.27,North,352,0.0,0.0,86,0.00,,,0.00,Wunderground v.1.15,2013-02-16 08:40:00,
2013-02-16 02:45:00,8.4,5.1,30.27,North,352,0.0,0.0,86,0.00,,,0.00,Wunderground v.1.15,2013-02-16 08:45:00,
2013-02-16 02:55:00,8.3,5.0,30.27,North,352,0.0,0.0,86,0.00,,,0.00,Wunderground v.1.15,2013-02-16 08:55:00,
2013-02-16 03:00:00,8.1,4.8,30.26,North,352,0.0,0.0,86,0.00,,,0.00,Wunderground v.1.15,2013-02-16 09:00:00,
2013-02-16 03:10:00,7.9,4.6,30.26,North,352,0.0,0.0,86,0.00,,,0.00,Wunderground v.1.15,2013-02-16 09:10:00,
2013-02-16 03:15:00,7.7,4.4,30.25,North,352,0.0,0.0,86,0.00,,,0.00,Wunderground v.1.15,2013-02-16 09:15:00,
2013-02-16 03:25:00,7.6,4.3,30.25,North,352,0.0,0.0,86,0.00,,,0.00,Wunderground v.1.15,2013-02-16 09:25:00,
2013-02-16 03:35:00,7.6,4.3,30.25,North,352,0.0,0.0,86,0.00,,,0.00,Wunderground v.1.15,2013-02-16 09:35:00,
2013-02-16 03:45:00,7.6,4.3,30.25,North,352,0.0,0.0,86,0.00,,,0.00,Wunderground v.1.15,2013-02-16 09:45:00,
2013-02-16 03:55:00,7.4,4.1,30.25,North,352,0.0,0.0,86,0.00,,,0.00,Wunderground v.1.15,2013-02-16 09:55:00,
2013-02-16 04:00:00,7.6,4.3,30.24,North,352,0.0,0.0,86,0.00,,,0.00,Wunderground v.1.15,2013-02-16 10:00:00,
2013-02-16 04:10:00,7.6,4.3,30.24,North,352,0.0,0.0,86,0.00,,,0.00,Wunderground v.1.15,2013-02-16 10:10:00,
2013-02-16 04:15:00,7.6,4.3,30.24,North,352,0.0,0.0,86,0.00,,,0.00,Wunderground v.1.15,2013-02-16 10:15:00,
2013-02-16 04:25:00,7.6,4.3,30.24,North,352,0.0,0.0,86,0.00,,,0.00,Wunderground v.1.15,2013-02-16 10:25:00,
2013-02-16 04:30:00,7.6,4.3,30.24,North,352,0.0,0.0,86,0.00,,,0.00,Wunderground v.1.15,2013-02-16 10:30:00,
2013-02-16 04:40:00,7.7,4.4,30.24,North,352,0.0,0.0,86,0.00,,,0.00,Wunderground v.1.15,2013-02-16 10:40:00,
2013-02-16 04:45:00,7.6,4.3,30.23,North,352,0.0,0.0,86,0.00,,,0.00,Wunderground v.1.15,2013-02-16 10:45:00,
2013-02-16 04:50:00,7.6,4.3,30.23,North,352,0.0,0.0,86,0.00,,,0.00,Wunderground v.1.15,2013-02-16 10:50:00,
2013-02-16 04:55:00,7.6,4.3,30.23,North,352,0.0,0.0,86,0.00,,,0.00,Wunderground v.1.15,2013-02-16 10:55:00,
2013-02-16 05:05:00,7.6,4.3,30.23,North,352,0.0,0.0,86,0.00,,,0.00,Wunderground v.1.15,2013-02-16 11:05:00,
2013-02-16 05:15:00,7.4,4.1,30.23,North,352,0.0,0.0,86,0.00,,,0.00,Wunderground v.1.15,2013-02-16 11:15:00,
2013-02-16 05:25:00,7.4,4.1,30.23,North,352,0.0,0.0,86,0.00,,,0.00,Wunderground v.1.15,2013-02-16 11:25:00,
2013-02-16 05:35:00,7.4,4.1,30.23,North,352,0.0,0.0,86,0.00,,,0.00,Wunderground v.1.15,2013-02-16 11:35:00,
2013-02-16 05:45:00,7.4,4.1,30.23,North,352,0.0,0.0,86,0.00,,,0.00,Wunderground v.1.15,2013-02-16 11:45:00,
2013-02-16 05:55:00,7.2,3.9,30.23,North,352,0.0,0.0,86,0.00,,,0.00,Wunderground v.1.15,2013-02-16 11:55:00,
2013-02-16 06:05:00,7.4,4.1,30.23,North,352,0.0,0.0,86,0.00,,,0.00,Wunderground v.1.15,2013-02-16 12:05:00,
2013-02-16 06:15:00,7.2,3.9,30.24,North,352,0.0,0.0,86,0.00,,,0.00,Wunderground v.1.15,2013-02-16 12:15:00,
2013-02-16 06:25:00,7.0,3.7,30.24,North,352,0.0,0.0,86,0.00,,,0.00,Wunderground v.1.15,2013-02-16 12:25:00,
2013-02-16 06:35:00,7.0,3.7,30.24,North,352,0.0,0.0,86,0.00,,,0.00,Wunderground v.1.15,2013-02-16 12:35:00,
2013-02-16 06:45:00,7.0,3.7,30.24,North,352,0.0,0.0,86,0.00,,,0.00,Wunderground v.1.15,2013-02-16 12:45:00,
2013-02-16 06:55:00,7.0,3.7,30.24,North,352,0.0,0.0,86,0.00,,,0.00,Wunderground v.1.15,2013-02-16 12:55:00,
2013-02-16 07:05:00,7.0,3.7,30.24,North,352,0.0,0.0,86,0.00,,,0.00,Wunderground v.1.15,2013-02-16 13:05:00,
2013-02-16 07:15:00,7.2,3.9,30.24,North,352,0.0,0.0,86,0.00,,,0.00,Wunderground v.1.15,2013-02-16 13:15:00,
2013-02-16 07:20:00,7.2,3.9,30.24,North,352,0.0,0.0,86,0.00,,,0.00,Wunderground v.1.15,2013-02-16 13:20:00,
2013-02-16 07:30:00,7.4,4.1,30.24,North,352,0.0,0.0,86,0.00,,,0.00,Wunderground v.1.15,2013-02-16 13:30:00,
2013-02-16 07:40:00,7.4,4.1,30.24,NE,56,0.0,0.0,86,0.00,,,0.00,Wunderground v.1.15,2013-02-16 13:40:00,
2013-02-16 07:50:00,7.6,4.5,30.24,NE,56,0.0,0.0,87,0.00,,,0.00,Wunderground v.1.15,2013-02-16 13:50:00,
2013-02-16 07:55:00,7.6,4.5,30.24,NE,56,0.0,0.0,87,0.00,,,0.00,Wunderground v.1.15,2013-02-16 13:55:00,
2013-02-16 08:00:00,7.7,4.6,30.24,NE,56,0.0,0.0,87,0.00,,,0.00,Wunderground v.1.15,2013-02-16 14:00:00,
2013-02-16 08:10:00,7.7,4.4,30.24,ENE,65,0.0,0.0,86,0.00,,,0.00,Wunderground v.1.15,2013-02-16 14:10:00,
2013-02-16 08:20:00,7.9,4.8,30.23,East,92,0.0,0.0,87,0.00,,,0.00,Wunderground v.1.15,2013-02-16 14:20:00,
2013-02-16 08:25:00,7.7,4.4,30.23,SSE,155,0.0,0.0,86,0.00,,,0.00,Wunderground v.1.15,2013-02-16 14:25:00,
2013-02-16 08:30:00,7.9,4.8,30.23,SSE,155,0.0,0.0,87,0.00,,,0.00,Wunderground v.1.15,2013-02-16 14:30:00,
2013-02-16 08:40:00,7.9,4.6,30.23,SE,134,0.0,1.0,86,0.00,,,0.00,Wunderground v.1.15,2013-02-16 14:40:00,
2013-02-16 08:45:00,7.9,4.6,30.23,SE,134,0.0,1.0,86,0.00,,,0.00,Wunderground v.1.15,2013-02-16 14:45:00,
2013-02-16 08:55:00,7.7,4.4,30.23,SSE,160,0.0,1.0,86,0.00,,,0.00,Wunderground v.1.15,2013-02-16 14:55:00,
2013-02-16 09:00:00,7.7,4.4,30.22,SSE,161,1.0,1.0,86,0.00,,,0.00,Wunderground v.1.15,2013-02-16 15:00:00,
2013-02-16 09:10:00,7.7,4.4,30.22,SSE,168,1.0,2.0,86,0.00,,,0.00,Wunderground v.1.15,2013-02-16 15:10:00,
2013-02-16 09:15:00,7.9,4.6,30.22,SSE,161,1.0,2.0,86,0.00,,,0.00,Wunderground v.1.15,2013-02-16 15:15:00,
2013-02-16 09:25:00,7.7,4.4,30.22,ESE,102,1.0,1.0,86,0.00,,,0.00,Wunderground v.1.15,2013-02-16 15:25:00,
2013-02-16 09:35:00,8.1,4.8,30.22,SE,145,2.0,2.0,86,0.00,,,0.00,Wunderground v.1.15,2013-02-16 15:35:00,
2013-02-16 09:45:00,8.4,4.8,30.22,ESE,114,3.0,3.0,85,0.00,,,0.00,Wunderground v.1.15,2013-02-16 15:45:00,
2013-02-16 09:55:00,9.2,5.3,30.22,East,95,2.0,2.0,84,0.00,,,0.00,Wunderground v.1.15,2013-02-16 15:55:00,
2013-02-16 10:05:00,9.7,5.8,30.22,SE,127,1.0,2.0,84,0.00,,,0.00,Wunderground v.1.15,2013-02-16 16:05:00,
2013-02-16 10:15:00,9.3,4.9,30.22,SSE,161,3.0,7.0,82,0.00,,,0.00,Wunderground v.1.15,2013-02-16 16:15:00,
2013-02-16 10:25:00,9.2,4.6,30.22,SSE,157,4.0,7.0,81,0.00,,,0.00,Wunderground v.1.15,2013-02-16 16:25:00,
2013-02-16 10:35:00,9.3,4.6,30.22,SSE,161,4.0,5.0,81,0.00,,,0.00,Wunderground v.1.15,2013-02-16 16:35:00,
2013-02-16 10:45:00,9.3,4.4,30.22,SE,138,3.0,3.0,80,0.00,,,0.00,Wunderground v.1.15,2013-02-16 16:45:00,
2013-02-16 10:55:00,9.7,4.8,30.22,SSE,147,3.0,4.0,80,0.00,,,0.00,Wunderground v.1.15,2013-02-16 16:55:00,
2013-02-16 11:05:00,9.7,4.5,30.21,South,169,3.0,4.0,79,0.00,,,0.00,Wunderground v.1.15,2013-02-16 17:05:00,
2013-02-16 11:15:00,10.0,4.2,30.21,SSE,162,3.0,4.0,77,0.00,,,0.00,Wunderground v.1.15,2013-02-16 17:15:00,
2013-02-16 11:25:00,10.2,4.1,30.21,SE,138,3.0,4.0,76,0.00,,,0.00,Wunderground v.1.15,2013-02-16 17:25:00,
2013-02-16 11:35:00,10.2,4.1,30.21,ESE,119,3.0,6.0,76,0.00,,,0.00,Wunderground v.1.15,2013-02-16 17:35:00,
2013-02-16 11:45:00,10.4,4.3,30.21,SSE,155,3.0,3.0,76,0.00,,,0.00,Wunderground v.1.15,2013-02-16 17:45:00,
2013-02-16 11:55:00,10.2,3.8,30.21,SE,131,4.0,4.0,75,0.00,,,0.00,Wunderground v.1.15,2013-02-16 17:55:00,
2013-02-16 12:00:00,10.2,3.8,30.21,SSE,148,3.0,3.0,75,0.00,,,0.00,Wunderground v.1.15,2013-02-16 18:00:00,
2013-02-16 12:10:00,10.2,3.8,30.21,SE,130,4.0,6.0,75,0.00,,,0.00,Wunderground v.1.15,2013-02-16 18:10:00,
2013-02-16 12:15:00,10.2,3.6,30.19,South,171,5.0,6.0,74,0.00,,,0.00,Wunderground v.1.15,2013-02-16 18:15:00,
2013-02-16 12:25:00,9.9,3.6,30.19,SSE,167,6.0,6.0,75,0.00,,,0.00,Wunderground v.1.15,2013-02-16 18:25:00,
2013-02-16 12:30:00,9.9,3.6,30.19,SSE,155,6.0,7.0,75,0.00,,,0.00,Wunderground v.1.15,2013-02-16 18:30:00,
2013-02-16 12:40:00,10.2,3.8,30.19,ESE,106,4.0,7.0,75,0.00,,,0.00,Wunderground v.1.15,2013-02-16 18:40:00,
2013-02-16 12:45:00,9.9,3.6,30.18,SSE,164,5.0,7.0,75,0.00,,,0.00,Wunderground v.1.15,2013-02-16 18:45:00,
2013-02-16 12:50:00,10.2,4.1,30.18,SSE,147,6.0,8.0,76,0.00,,,0.00,Wunderground v.1.15,2013-02-16 18:50:00,
2013-02-16 12:55:00,10.2,3.8,30.18,SSE,161,6.0,8.0,75,0.00,,,0.00,Wunderground v.1.15,2013-02-16 18:55:00,
2013-02-16 13:00:00,10.2,3.8,30.18,SSE,154,5.0,7.0,75,0.00,,,0.00,Wunderground v.1.15,2013-02-16 19:00:00,
2013-02-16 13:10:00,10.0,3.7,30.18,ESE,107,5.0,5.0,75,0.00,,,0.00,Wunderground v.1.15,2013-02-16 19:10:00,
2013-02-16 13:20:00,10.0,3.7,30.17,ESE,123,6.0,6.0,75,0.00,,,0.00,Wunderground v.1.15,2013-02-16 19:20:00,
2013-02-16 13:25:00,10.5,4.1,30.17,SSE,155,5.0,6.0,75,0.00,,,0.00,Wunderground v.1.15,2013-02-16 19:25:00,
2013-02-16 13:30:00,10.7,4.0,30.17,SSE,165,4.0,4.0,74,0.00,,,0.00,Wunderground v.1.15,2013-02-16 19:30:00,
2013-02-16 13:40:00,10.9,4.2,30.17,SSE,150,3.0,4.0,74,0.00,,,0.00,Wunderground v.1.15,2013-02-16 19:40:00,
2013-02-16 13:45:00,11.1,4.4,30.17,SSE,160,4.0,7.0,74,0.00,,,0.00,Wunderground v.1.15,2013-02-16 19:45:00,
2013-02-16 13:55:00,10.9,3.9,30.17,SE,130,5.0,5.0,73,0.00,,,0.00,Wunderground v.1.15,2013-02-16 19:55:00,
2013-02-16 14:00:00,10.9,3.9,30.17,SE,134,4.0,6.0,73,0.00,,,0.00,Wunderground v.1.15,2013-02-16 20:00:00,
2013-02-16 14:10:00,11.2,4.2,30.17,SE,131,4.0,4.0,73,0.00,,,0.00,Wunderground v.1.15,2013-02-16 20:10:00,
2013-02-16 14:15:00,11.2,4.2,30.16,SSE,155,4.0,4.0,73,0.00,,,0.00,Wunderground v.1.15,2013-02-16 20:15:00,
2013-02-16 14:25:00,10.9,4.2,30.16,SSE,148,6.0,6.0,74,0.00,,,0.00,Wunderground v.1.15,2013-02-16 20:25:00,
2013-02-16 14:35:00,11.2,4.5,30.16,SE,141,5.0,11.0,74,0.00,,,0.00,Wunderground v.1.15,2013-02-16 20:35:00,
2013-02-16 14:45:00,11.4,4.4,30.16,ESE,109,4.0,6.0,73,0.00,,,0.00,Wunderground v.1.15,2013-02-16 20:45:00,
2013-02-16 14:55:00,11.6,4.6,30.16,SSE,161,4.0,4.0,73,0.00,,,0.00,Wunderground v.1.15,2013-02-16 20:55:00,
2013-02-16 15:05:00,11.7,4.4,30.15,ESE,104,4.0,5.0,72,0.00,,,0.00,Wunderground v.1.15,2013-02-16 21:05:00,
2013-02-16 15:15:00,12.1,4.5,30.15,East,88,3.0,7.0,71,0.00,,,0.00,Wunderground v.1.15,2013-02-16 21:15:00,
2013-02-16 15:25:00,12.1,4.8,30.15,SE,136,3.0,3.0,72,0.00,,,0.00,Wunderground v.1.15,2013-02-16 21:25:00,
2013-02-16 15:35:00,11.9,4.6,30.16,SSE,161,4.0,8.0,72,0.00,,,0.00,Wunderground v.1.15,2013-02-16 21:35:00,
2013-02-16 15:40:00,11.7,4.4,30.16,SE,126,4.0,4.0,72,0.00,,,0.00,Wunderground v.1.15,2013-02-16 21:40:00,
2013-02-16 15:45:00,11.9,4.6,30.16,SSE,162,4.0,4.0,72,0.00,,,0.00,Wunderground v.1.15,2013-02-16 21:45:00,
2013-02-16 15:55:00,11.1,4.1,30.16,SSE,148,4.0,6.0,73,0.00,,,0.00,Wunderground v.1.15,2013-02-16 21:55:00,
2013-02-16 16:05:00,10.9,4.2,30.16,SE,140,2.0,6.0,74,0.00,,,0.00,Wunderground v.1.15,2013-02-16 22:05:00,
2013-02-16 16:10:00,10.7,4.0,30.16,ESE,123,2.0,4.0,74,0.00,,,0.00,Wunderground v.1.15,2013-02-16 22:10:00,
2013-02-16 16:15:00,10.7,4.0,30.16,SSE,162,2.0,4.0,74,0.00,,,0.00,Wunderground v.1.15,2013-02-16 22:15:00,
2013-02-16 16:25:00,10.7,4.0,30.16,SSE,148,2.0,2.0,74,0.00,,,0.00,Wunderground v.1.15,2013-02-16 22:25:00,
2013-02-16 16:30:00,10.9,4.2,30.17,SSE,150,2.0,2.0,74,0.00,,,0.00,Wunderground v.1.15,2013-02-16 22:30:00,
2013-02-16 16:40:00,11.1,4.7,30.17,SE,144,2.0,2.0,75,0.00,,,0.00,Wunderground v.1.15,2013-02-16 22:40:00,
2013-02-16 16:45:00,11.1,4.7,30.16,SSE,155,2.0,2.0,75,0.00,,,0.00,Wunderground v.1.15,2013-02-16 22:45:00,
2013-02-16 16:55:00,11.1,4.7,30.16,SE,134,2.0,2.0,75,0.00,,,0.00,Wunderground v.1.15,2013-02-16 22:55:00,
2013-02-16 17:00:00,11.1,4.7,30.16,SE,141,2.0,2.0,75,0.00,,,0.00,Wunderground v.1.15,2013-02-16 23:00:00,
2013-02-16 17:10:00,11.1,4.7,30.16,SSE,147,2.0,2.0,75,0.00,,,0.00,Wunderground v.1.15,2013-02-16 23:10:00,
2013-02-16 17:20:00,10.9,4.5,30.16,SE,144,1.0,1.0,75,0.00,,,0.00,Wunderground v.1.15,2013-02-16 23:20:00,
2013-02-16 17:30:00,10.9,4.5,30.16,SE,140,1.0,1.0,75,0.00,,,0.00,Wunderground v.1.15,2013-02-16 23:30:00,
2013-02-16 17:40:00,10.7,4.3,30.16,SE,138,1.0,1.0,75,0.00,,,0.00,Wunderground v.1.15,2013-02-16 23:40:00,
2013-02-16 17:45:00,10.7,4.3,30.16,SE,141,1.0,6.0,75,0.00,,,0.00,Wunderground v.1.15,2013-02-16 23:45:00,
2013-02-16 17:55:00,10.7,4.3,30.16,SSE,151,1.0,1.0,75,0.00,,,0.00,Wunderground v.1.15,2013-02-16 23:55:00,
2013-02-16 18:00:00,10.5,4.4,30.16,SSE,152,1.0,1.0,76,0.00,,,0.00,Wunderground v.1.15,2013-02-17 00:00:00,
2013-02-16 18:10:00,10.5,4.4,30.16,ESE,109,1.0,2.0,76,0.00,,,0.00,Wunderground v.1.15,2013-02-17 00:10:00,
2013-02-16 18:15:00,10.5,4.4,30.16,SSE,151,2.0,2.0,76,0.00,,,0.00,Wunderground v.1.15,2013-02-17 00:15:00,
2013-02-16 18:25:00,10.5,4.4,30.16,SE,133,1.0,2.0,76,0.00,,,0.00,Wunderground v.1.15,2013-02-17 00:25:00,
2013-02-16 18:30:00,10.5,4.4,30.16,SSE,147,1.0,1.0,76,0.00,,,0.00,Wunderground v.1.15,2013-02-17 00:30:00,
2013-02-16 18:40:00,10.5,4.4,30.16,ESE,121,1.0,1.0,76,0.00,,,0.00,Wunderground v.1.15,2013-02-17 00:40:00,
2013-02-16 18:45:00,10.5,4.4,30.15,ESE,123,2.0,2.0,76,0.00,,,0.00,Wunderground v.1.15,2013-02-17 00:45:00,
2013-02-16 18:55:00,10.5,4.4,30.15,ESE,109,2.0,3.0,76,0.00,,,0.00,Wunderground v.1.15,2013-02-17 00:55:00,
2013-02-16 19:05:00,10.5,4.7,30.15,ESE,121,2.0,2.0,77,0.00,,,0.00,Wunderground v.1.15,2013-02-17 01:05:00,
2013-02-16 19:10:00,10.5,4.7,30.15,SE,130,1.0,1.0,77,0.00,,,0.00,Wunderground v.1.15,2013-02-17 01:10:00,
2013-02-16 19:15:00,10.5,4.7,30.15,ESE,123,1.0,1.0,77,0.00,,,0.00,Wunderground v.1.15,2013-02-17 01:15:00,
2013-02-16 19:25:00,10.7,4.9,30.15,SE,134,2.0,4.0,77,0.00,,,0.00,Wunderground v.1.15,2013-02-17 01:25:00,
2013-02-16 19:30:00,10.7,4.9,30.15,SE,124,1.0,1.0,77,0.00,,,0.00,Wunderground v.1.15,2013-02-17 01:30:00,
2013-02-16 19:40:00,10.7,4.9,30.15,ESE,103,2.0,2.0,77,0.00,,,0.00,Wunderground v.1.15,2013-02-17 01:40:00,
2013-02-16 19:45:00,10.7,4.9,30.14,SE,134,2.0,4.0,77,0.00,,,0.00,Wunderground v.1.15,2013-02-17 01:45:00,
2013-02-16 19:55:00,10.7,4.9,30.14,SSE,167,1.0,8.0,77,0.00,,,0.00,Wunderground v.1.15,2013-02-17 01:55:00,
2013-02-16 20:05:00,10.7,4.9,30.14,East,99,1.0,2.0,77,0.00,,,0.00,Wunderground v.1.15,2013-02-17 02:05:00,
2013-02-16 20:15:00,10.9,5.1,30.14,ESE,106,2.0,4.0,77,0.00,,,0.00,Wunderground v.1.15,2013-02-17 02:15:00,
2013-02-16 20:25:00,10.9,5.1,30.14,SE,131,2.0,2.0,77,0.00,,,0.00,Wunderground v.1.15,2013-02-17 02:25:00,
2013-02-16 20:35:00,10.9,5.1,30.13,ESE,121,1.0,4.0,77,0.00,,,0.00,Wunderground v.1.15,2013-02-17 02:35:00,
2013-02-16 20:40:00,10.9,5.1,30.13,ESE,114,2.0,2.0,77,0.00,,,0.00,Wunderground v.1.15,2013-02-17 02:40:00,
2013-02-16 20:45:00,10.9,5.1,30.13,ESE,110,2.0,2.0,77,0.00,,,0.00,Wunderground v.1.15,2013-02-17 02:45:00,
2013-02-16 20:55:00,10.9,5.1,30.13,SSE,157,1.0,2.0,77,0.00,,,0.00,Wunderground v.1.15,2013-02-17 02:55:00,
2013-02-16 21:05:00,10.9,5.1,30.13,ESE,120,1.0,2.0,77,0.00,,,0.00,Wunderground v.1.15,2013-02-17 03:05:00,
2013-02-16 21:10:00,10.9,5.1,30.13,SE,134,0.0,1.0,77,0.00,,,0.00,Wunderground v.1.15,2013-02-17 03:10:00,
2013-02-16 21:20:00,10.9,5.1,30.13,ESE,119,1.0,1.0,77,0.00,,,0.00,Wunderground v.1.15,2013-02-17 03:20:00,
2013-02-16 21:30:00,11.1,5.3,30.12,SE,136,1.0,1.0,77,0.00,,,0.00,Wunderground v.1.15,2013-02-17 03:30:00,
2013-02-16 21:40:00,11.1,5.3,30.12,SE,133,1.0,1.0,77,0.00,,,0.00,Wunderground v.1.15,2013-02-17 03:40:00,
2013-02-16 21:50:00,11.1,5.3,30.12,SE,136,1.0,1.0,77,0.00,,,0.00,Wunderground v.1.15,2013-02-17 03:50:00,
2013-02-16 22:00:00,11.2,5.4,30.11,ESE,112,2.0,4.0,77,0.00,,,0.00,Wunderground v.1.15,2013-02-17 04:00:00,
2013-02-16 22:10:00,11.1,5.3,30.11,SSE,148,1.0,1.0,77,0.00,,,0.00,Wunderground v.1.15,2013-02-17 04:10:00,
2013-02-16 22:20:00,11.1,5.3,30.11,SE,128,1.0,2.0,77,0.00,,,0.00,Wunderground v.1.15,2013-02-17 04:20:00,
2013-02-16 22:30:00,11.1,5.3,30.10,SE,124,1.0,4.0,77,0.00,,,0.00,Wunderground v.1.15,2013-02-17 04:30:00,
2013-02-16 22:40:00,10.9,5.1,30.10,SSE,155,1.0,1.0,77,0.00,,,0.00,Wunderground v.1.15,2013-02-17 04:40:00,
2013-02-16 22:45:00,10.7,4.9,30.11,SE,133,1.0,1.0,77,0.00,,,0.00,Wunderground v.1.15,2013-02-17 04:45:00,
2013-02-16 22:55:00,10.7,5.2,30.11,SSE,160,2.0,2.0,78,0.00,,,0.00,Wunderground v.1.15,2013-02-17 04:55:00,
2013-02-16 23:00:00,10.5,5.0,30.11,SSE,160,2.0,2.0,78,0.00,,,0.00,Wunderground v.1.15,2013-02-17 05:00:00,
2013-02-16 23:05:00,10.4,4.9,30.11,SSE,154,3.0,4.0,78,0.00,,,0.00,Wunderground v.1.15,2013-02-17 05:05:00,
2013-02-16 23:10:00,10.2,4.7,30.11,ESE,123,3.0,3.0,78,0.00,,,0.00,Wunderground v.1.15,2013-02-17 05:10:00,
2013-02-16 23:15:00,10.0,4.8,30.11,SE,134,2.0,4.0,79,0.00,,,0.00,Wunderground v.1.15,2013-02-17 05:15:00,
2013-02-16 23:20:00,10.0,4.8,30.11,SSE,151,2.0,2.0,79,0.00,,,0.00,Wunderground v.1.15,2013-02-17 05:20:00,
2013-02-16 23:30:00,10.0,4.8,30.10,SSE,151,2.0,2.0,79,0.00,,,0.00,Wunderground v.1.15,2013-02-17 05:30:00,
2013-02-16 23:35:00,9.9,4.7,30.10,ESE,110,1.0,2.0,79,0.00,,,0.00,Wunderground v.1.15,2013-02-17 05:35:00,
2013-02-16 23:40:00,10.0,5.1,30.10,SE,137,2.0,2.0,80,0.00,,,0.00,Wunderground v.1.15,2013-02-17 05:40:00,
2013-02-16 23:50:00,9.9,4.7,30.10,ESE,120,1.0,1.0,79,0.00,,,0.00,Wunderground v.1.15,2013-02-17 05:50:00,
2013-02-16 23:55:00,9.7,4.8,30.10,SE,131,1.0,2.0,80,0.00,,,0.00,Wunderground v.1.15,2013-02-17 05:55:00,